Terminal Aerodrome Forecast
Issued by NWS Tampa Bay Area, FL

Home | Current Version | Previous Version | Text Only | Print | Product List | Glossary On
Versions: 1 2 3 4 5 6 7 8 9 10 11
000
FTUS42 KTBW 172330
TAFSRQ
TAF
KSRQ 172330Z 1800/1824 34007KT P6SM FEW050 BKN200
     FM180200 06003KT P6SM FEW030 BKN250
     FM181400 10005KT P6SM FEW025 SCT250
     FM181700 27008KT P6SM SCT035 SCT250=

USA.gov is the U.S. government's official web portal to all federal, state and local government web resources and services.